createdAt,value
2018-06-30T00:01:38.585Z,51.30
2018-06-30T00:04:05.797Z,51.70
2018-06-30T00:06:32.982Z,51.40
2018-06-30T00:09:00.180Z,51.70
2018-06-30T00:11:27.361Z,51.70
2018-06-30T00:13:54.686Z,52.10
2018-06-30T00:16:21.916Z,52.20
2018-06-30T00:18:49.308Z,52.00
2018-06-30T00:21:16.513Z,52.20
2018-06-30T00:23:43.689Z,52.10
2018-06-30T00:26:10.880Z,51.70
2018-06-30T00:28:38.393Z,51.80
2018-06-30T00:31:06.062Z,52.00
2018-06-30T00:33:33.409Z,51.70
2018-06-30T00:36:00.593Z,51.70
2018-06-30T00:38:27.753Z,52.20
2018-06-30T00:40:55.200Z,52.20
2018-06-30T00:43:22.435Z,52.00
2018-06-30T00:45:49.613Z,51.90
2018-06-30T00:48:16.780Z,51.60
2018-06-30T00:50:43.961Z,51.70
2018-06-30T00:53:11.324Z,51.80
2018-06-30T00:55:38.526Z,51.70
2018-06-30T00:58:06.364Z,52.10
2018-06-30T01:00:33.517Z,52.00
2018-06-30T01:03:00.709Z,52.20
2018-06-30T01:05:27.893Z,52.00
2018-06-30T01:07:55.060Z,52.30
2018-06-30T01:10:22.230Z,52.20
2018-06-30T01:12:49.406Z,52.30
2018-06-30T01:15:16.585Z,52.70
2018-06-30T01:17:43.802Z,52.60
2018-06-30T01:20:11.040Z,52.90
2018-06-30T01:22:38.401Z,52.80
2018-06-30T01:25:05.560Z,52.70
2018-06-30T01:27:32.762Z,52.90
2018-06-30T01:29:59.949Z,52.90
2018-06-30T01:32:27.122Z,52.90
2018-06-30T01:34:54.313Z,52.90
2018-06-30T01:37:21.561Z,52.90
2018-06-30T01:39:48.748Z,52.80
2018-06-30T01:42:15.900Z,52.80
2018-06-30T01:44:43.101Z,52.80
2018-06-30T01:47:10.254Z,52.60
2018-06-30T01:49:37.656Z,52.60
2018-06-30T01:52:05.130Z,52.60
2018-06-30T01:54:32.309Z,52.70
2018-06-30T01:56:59.492Z,52.90
2018-06-30T01:59:26.669Z,52.70
2018-06-30T02:01:53.904Z,52.90
2018-06-30T02:04:21.077Z,52.90
2018-06-30T02:06:48.244Z,53.20
2018-06-30T02:09:15.420Z,53.10
2018-06-30T02:11:42.592Z,53.20
2018-06-30T02:14:09.920Z,53.20
2018-06-30T02:16:37.085Z,52.90
2018-06-30T02:19:04.761Z,54.10
2018-06-30T02:21:31.959Z,53.50
2018-06-30T02:23:59.161Z,54.00
2018-06-30T02:26:26.324Z,53.60
2018-06-30T02:28:53.957Z,53.70
2018-06-30T02:31:21.119Z,53.70
2018-06-30T02:33:48.446Z,53.90
2018-06-30T02:36:15.657Z,54.10
2018-06-30T02:38:42.862Z,54.10
2018-06-30T02:41:10.094Z,54.30
2018-06-30T02:43:37.256Z,54.50
2018-06-30T02:46:04.578Z,54.70
2018-06-30T02:48:31.690Z,54.50
2018-06-30T02:50:58.897Z,54.80
2018-06-30T02:53:26.121Z,54.80
2018-06-30T02:55:53.321Z,55.20
2018-06-30T02:58:20.481Z,55.20
2018-06-30T03:03:38.274Z,55.20
2018-06-30T03:06:05.502Z,55.30
2018-06-30T03:08:32.663Z,55.60
2018-06-30T03:10:59.852Z,55.90
2018-06-30T03:13:27.021Z,56.00
2018-06-30T03:18:21.423Z,56.30
2018-06-30T03:20:48.592Z,56.30
2018-06-30T03:23:15.768Z,56.70
2018-06-30T03:25:42.940Z,56.60
2018-06-30T03:28:10.258Z,56.50
2018-06-30T03:30:37.745Z,56.80
2018-06-30T03:33:04.924Z,56.90
2018-06-30T03:35:32.106Z,57.10
2018-06-30T03:37:59.280Z,57.20
2018-06-30T03:40:26.619Z,57.20
2018-06-30T03:42:53.790Z,57.10
2018-06-30T03:47:48.137Z,57.10
2018-06-30T03:50:15.482Z,56.90
2018-06-30T03:52:42.681Z,56.90
2018-06-30T03:55:09.853Z,57.50
2018-06-30T03:57:37.027Z,57.80
2018-06-30T04:00:04.630Z,57.90
2018-06-30T04:02:31.825Z,58.00
2018-06-30T04:04:59.004Z,58.50
2018-06-30T04:07:26.180Z,58.10
2018-06-30T04:09:53.384Z,58.10
2018-06-30T04:12:20.554Z,57.90
2018-06-30T04:14:47.721Z,58.00
2018-06-30T04:17:14.900Z,58.10
2018-06-30T04:19:42.069Z,58.10
2018-06-30T04:22:09.307Z,58.40
2018-06-30T04:24:36.440Z,58.40
2018-06-30T04:27:03.700Z,58.40
2018-06-30T04:29:30.880Z,58.60
2018-06-30T04:31:58.069Z,59.10
2018-06-30T04:34:25.233Z,59.40
2018-06-30T04:36:53.229Z,59.70
2018-06-30T04:39:20.413Z,60.10
2018-06-30T04:41:47.585Z,60.60
2018-06-30T04:44:14.771Z,60.60
2018-06-30T04:46:41.940Z,60.40
2018-06-30T04:49:09.119Z,61.40
2018-06-30T04:51:36.281Z,60.70
2018-06-30T04:54:03.499Z,60.50
2018-06-30T04:56:30.664Z,60.20
2018-06-30T04:58:57.854Z,60.20
2018-06-30T05:01:25.033Z,60.70
2018-06-30T05:03:52.221Z,60.20
2018-06-30T05:08:53.462Z,60.50
2018-06-30T05:11:27.321Z,60.20
2018-06-30T05:13:54.521Z,60.40
2018-06-30T05:16:21.685Z,60.30
2018-06-30T05:18:48.868Z,60.40
2018-06-30T05:21:16.028Z,60.30
2018-06-30T05:23:43.252Z,59.70
2018-06-30T05:26:10.504Z,59.20
2018-06-30T05:28:37.676Z,59.70
2018-06-30T05:31:05.048Z,59.50
2018-06-30T05:33:32.280Z,59.70
2018-06-30T05:35:59.509Z,60.20
2018-06-30T05:38:26.683Z,60.00
2018-06-30T05:40:53.909Z,59.80
2018-06-30T05:43:21.101Z,59.70
2018-06-30T05:45:48.285Z,59.50
2018-06-30T05:48:15.465Z,59.50
2018-06-30T05:50:42.666Z,59.80
2018-06-30T05:53:10.074Z,59.80
2018-06-30T05:55:37.253Z,59.20
2018-06-30T05:58:04.430Z,59.20
2018-06-30T06:00:31.628Z,59.20
2018-06-30T06:02:58.776Z,58.70
2018-06-30T06:05:26.187Z,59.20
2018-06-30T06:07:53.403Z,58.70
2018-06-30T06:10:20.577Z,58.90
2018-06-30T06:12:47.829Z,59.40
2018-06-30T06:15:15.023Z,60.00
2018-06-30T06:17:42.453Z,59.70
2018-06-30T06:20:09.707Z,60.20
2018-06-30T06:22:36.833Z,59.90
2018-06-30T06:25:04.048Z,59.80
2018-06-30T06:27:31.254Z,60.10
2018-06-30T06:29:58.669Z,59.20
2018-06-30T06:32:25.857Z,59.20
2018-06-30T06:34:53.012Z,58.80
2018-06-30T06:37:20.212Z,59.20
2018-06-30T06:39:47.379Z,59.50
2018-06-30T06:42:14.587Z,59.20
2018-06-30T06:44:41.801Z,58.90
2018-06-30T06:47:09.001Z,59.20
2018-06-30T06:49:36.162Z,59.00
2018-06-30T06:52:03.382Z,59.20
2018-06-30T06:54:30.634Z,59.20
2018-06-30T06:56:57.840Z,59.10
2018-06-30T06:59:24.997Z,59.80
2018-06-30T07:01:52.173Z,58.30
2018-06-30T07:04:19.512Z,59.10
2018-06-30T07:06:46.660Z,59.10
2018-06-30T07:09:14.044Z,58.60
2018-06-30T07:11:41.013Z,58.20
2018-06-30T07:14:09.121Z,56.80
2018-06-30T07:16:36.328Z,56.50
2018-06-30T07:21:30.717Z,57.00
2018-06-30T07:23:57.925Z,56.70
2018-06-30T07:26:25.173Z,56.50
2018-06-30T07:28:52.556Z,56.00
2018-06-30T07:31:19.869Z,55.60
2018-06-30T07:33:47.032Z,54.20
2018-06-30T07:36:14.421Z,54.50
2018-06-30T07:38:41.666Z,53.00
2018-06-30T07:41:08.856Z,51.80
2018-06-30T07:43:36.042Z,49.50
2018-06-30T07:46:03.277Z,48.70
2018-06-30T07:48:30.443Z,47.30
2018-06-30T07:50:57.700Z,47.00
2018-06-30T07:53:24.949Z,45.60
2018-06-30T07:55:52.297Z,45.00
2018-06-30T07:58:19.348Z,44.30
2018-06-30T08:00:46.530Z,43.10
2018-06-30T08:03:13.700Z,43.00
2018-06-30T08:05:41.052Z,43.10
2018-06-30T08:08:08.240Z,43.70
2018-06-30T08:10:35.442Z,43.90
2018-06-30T08:13:02.633Z,43.90
2018-06-30T08:15:36.590Z,44.00
2018-06-30T08:18:03.788Z,43.10
2018-06-30T08:20:30.996Z,43.00
2018-06-30T08:22:58.229Z,42.80
2018-06-30T08:25:25.446Z,42.50
2018-06-30T08:30:19.894Z,43.50
2018-06-30T08:32:47.105Z,43.30
2018-06-30T08:35:14.334Z,43.10
2018-06-30T08:37:41.498Z,42.70
2018-06-30T08:40:08.717Z,42.00
2018-06-30T08:42:35.888Z,41.70
2018-06-30T08:47:30.274Z,42.90
2018-06-30T08:49:57.537Z,43.30
2018-06-30T08:52:24.705Z,42.80
2018-06-30T08:54:51.883Z,41.60
2018-06-30T08:57:19.036Z,42.20
2018-06-30T08:59:46.200Z,41.30
2018-06-30T09:02:13.389Z,41.90
2018-06-30T09:04:40.654Z,41.60
2018-06-30T09:07:07.820Z,40.60
2018-06-30T09:12:02.202Z,39.70
2018-06-30T09:14:29.392Z,39.70
2018-06-30T09:16:56.885Z,38.90
2018-06-30T09:19:24.049Z,38.70
2018-06-30T09:21:51.224Z,38.60
2018-06-30T09:24:18.492Z,38.00
2018-06-30T09:26:45.604Z,38.50
2018-06-30T09:29:12.792Z,38.40
2018-06-30T09:31:39.969Z,37.50
2018-06-30T09:34:07.472Z,36.80
2018-06-30T09:36:34.648Z,36.00
2018-06-30T09:39:01.826Z,36.90
2018-06-30T09:41:29.021Z,35.40
2018-06-30T09:43:56.181Z,34.60
2018-06-30T09:46:23.500Z,34.40
2018-06-30T09:48:50.668Z,35.20
2018-06-30T09:51:17.868Z,35.20
2018-06-30T09:53:45.030Z,33.60
2018-06-30T09:56:12.236Z,33.80
2018-06-30T09:58:39.402Z,33.40
2018-06-30T10:01:07.700Z,32.60
2018-06-30T10:03:35.220Z,31.90
2018-06-30T10:06:02.404Z,32.80
2018-06-30T10:08:29.573Z,32.20
2018-06-30T10:10:56.972Z,32.40
2018-06-30T10:13:24.229Z,32.10
2018-06-30T10:15:51.445Z,31.60
2018-06-30T10:18:18.724Z,31.80
2018-06-30T10:20:45.944Z,31.90
2018-06-30T10:23:13.121Z,32.40
2018-06-30T10:25:40.291Z,31.60
2018-06-30T10:28:07.818Z,31.50
2018-06-30T10:30:35.331Z,30.50
2018-06-30T10:33:02.489Z,32.10
2018-06-30T10:37:56.839Z,30.50
2018-06-30T10:40:24.034Z,29.60
2018-06-30T10:42:51.200Z,29.50
2018-06-30T10:45:18.389Z,29.30
2018-06-30T10:50:12.737Z,28.10
2018-06-30T10:52:39.899Z,28.70
2018-06-30T10:55:07.093Z,28.20
2018-06-30T10:57:34.381Z,29.10
2018-06-30T11:00:01.584Z,29.80
2018-06-30T11:02:28.762Z,30.20
2018-06-30T11:04:55.948Z,29.80
2018-06-30T11:07:23.148Z,30.70
2018-06-30T11:09:50.305Z,29.90
2018-06-30T11:12:17.493Z,29.40
2018-06-30T11:14:44.692Z,30.20
2018-06-30T11:17:11.865Z,29.70
2018-06-30T11:19:39.057Z,30.40
2018-06-30T11:22:06.208Z,30.10
2018-06-30T11:24:33.402Z,30.10
2018-06-30T11:27:00.580Z,30.10
2018-06-30T11:29:27.788Z,31.00
2018-06-30T11:31:54.962Z,30.20
2018-06-30T11:34:22.185Z,29.40
2018-06-30T11:36:49.713Z,29.90
2018-06-30T11:39:16.912Z,28.80
2018-06-30T11:41:44.072Z,28.20
2018-06-30T11:44:11.677Z,27.70
2018-06-30T11:46:38.849Z,27.90
2018-06-30T11:49:06.405Z,27.00
2018-06-30T11:51:33.765Z,28.00
2018-06-30T11:54:00.957Z,29.20
2018-06-30T11:56:28.144Z,27.60
2018-06-30T11:58:55.329Z,28.30
2018-06-30T12:01:22.504Z,29.00
2018-06-30T12:03:49.696Z,28.30
2018-06-30T12:06:16.913Z,28.90
2018-06-30T12:08:44.065Z,27.90
2018-06-30T12:11:11.284Z,28.80
2018-06-30T12:13:38.448Z,28.40
2018-06-30T12:16:05.793Z,29.20
2018-06-30T12:18:32.949Z,28.20
2018-06-30T12:21:00.120Z,29.40
2018-06-30T12:23:27.341Z,29.20
2018-06-30T12:25:54.551Z,28.40
2018-06-30T12:28:21.772Z,28.80
2018-06-30T12:30:48.965Z,28.90
2018-06-30T12:33:16.128Z,29.50
2018-06-30T12:35:43.318Z,29.10
2018-06-30T12:38:10.567Z,28.40
2018-06-30T12:40:37.784Z,29.20
2018-06-30T12:43:04.971Z,29.80
2018-06-30T12:45:32.156Z,29.50
2018-06-30T12:47:59.332Z,29.80
2018-06-30T12:52:53.689Z,29.20
2018-06-30T12:55:20.882Z,29.60
2018-06-30T12:57:48.185Z,29.80
2018-06-30T13:00:15.361Z,30.00
2018-06-30T13:02:42.559Z,29.50
2018-06-30T13:05:09.759Z,30.10
2018-06-30T13:07:36.924Z,29.90
2018-06-30T13:10:04.153Z,30.70
2018-06-30T13:12:31.378Z,30.90
2018-06-30T13:14:58.704Z,31.10
2018-06-30T13:17:25.906Z,29.90
2018-06-30T13:19:53.149Z,31.20
2018-06-30T13:22:20.429Z,30.50
2018-06-30T13:24:47.587Z,31.30
2018-06-30T13:29:41.961Z,31.80
2018-06-30T13:32:09.141Z,31.50
2018-06-30T13:34:36.291Z,30.70
2018-06-30T13:37:03.547Z,30.60
2018-06-30T13:39:30.716Z,31.20
2018-06-30T13:41:57.896Z,32.00
2018-06-30T13:44:25.081Z,31.30
2018-06-30T13:46:52.256Z,32.80
2018-06-30T13:49:19.421Z,32.20
2018-06-30T13:51:46.617Z,33.60
2018-06-30T13:54:13.817Z,32.50
2018-06-30T13:56:40.983Z,32.70
2018-06-30T13:59:08.193Z,32.30
2018-06-30T14:01:35.368Z,32.90
2018-06-30T14:04:02.601Z,32.90
2018-06-30T14:06:29.785Z,32.70
2018-06-30T14:08:56.972Z,33.30
2018-06-30T14:11:24.164Z,33.10
2018-06-30T14:13:51.563Z,33.80
2018-06-30T14:16:18.727Z,33.50
2018-06-30T14:18:45.922Z,34.30
2018-06-30T14:21:13.129Z,33.70
2018-06-30T14:23:40.324Z,34.20
2018-06-30T14:26:07.524Z,33.40
2018-06-30T14:28:34.741Z,34.00
2018-06-30T14:31:01.890Z,34.10
2018-06-30T14:33:29.082Z,34.30
2018-06-30T14:35:56.254Z,35.30
2018-06-30T14:38:23.445Z,35.20
2018-06-30T14:40:50.638Z,35.20
2018-06-30T14:43:17.826Z,35.00
2018-06-30T14:45:51.716Z,35.30
2018-06-30T14:48:18.901Z,35.40
2018-06-30T14:50:46.074Z,37.20
2018-06-30T14:53:13.267Z,35.80
2018-06-30T14:55:40.581Z,36.70
2018-06-30T14:58:07.884Z,36.60
2018-06-30T15:00:35.053Z,36.60
2018-06-30T15:03:02.241Z,36.50
2018-06-30T15:05:29.442Z,36.10
2018-06-30T15:07:56.844Z,36.50
2018-06-30T15:10:24.038Z,36.40
2018-06-30T15:15:18.541Z,37.50
2018-06-30T15:17:45.703Z,37.70
2018-06-30T15:20:12.882Z,38.20
2018-06-30T15:22:40.052Z,38.50
2018-06-30T15:25:07.245Z,38.50
2018-06-30T15:27:34.544Z,38.60
2018-06-30T15:30:01.754Z,38.80
2018-06-30T15:32:28.935Z,39.70
2018-06-30T15:34:56.201Z,38.80
2018-06-30T15:37:23.396Z,38.50
2018-06-30T15:39:50.568Z,38.60
2018-06-30T15:42:17.755Z,37.20
2018-06-30T15:44:45.004Z,38.20
2018-06-30T15:47:12.203Z,39.20
2018-06-30T15:49:39.388Z,38.60
2018-06-30T15:52:06.881Z,38.40
2018-06-30T15:54:34.930Z,38.60
2018-06-30T15:57:02.133Z,40.00
2018-06-30T15:59:29.304Z,40.30
2018-06-30T16:01:56.508Z,40.80
2018-06-30T16:04:23.899Z,39.90
2018-06-30T16:09:18.323Z,40.10
2018-06-30T16:11:45.510Z,39.90
2018-06-30T16:14:12.701Z,40.00
2018-06-30T16:19:07.242Z,40.70
2018-06-30T16:24:01.965Z,40.00
2018-06-30T16:28:57.643Z,40.70
2018-06-30T16:31:24.946Z,39.30
2018-06-30T16:33:52.137Z,40.10
2018-06-30T16:36:19.625Z,40.10
2018-06-30T16:38:46.824Z,40.10
2018-06-30T16:41:14.027Z,39.40
2018-06-30T16:43:41.260Z,39.20
2018-06-30T16:46:08.413Z,40.20
2018-06-30T16:48:35.623Z,39.70
2018-06-30T16:51:02.857Z,40.40
2018-06-30T16:53:30.052Z,40.10
2018-06-30T16:55:57.345Z,40.10
2018-06-30T16:58:24.649Z,40.90
2018-06-30T17:00:51.840Z,40.40
2018-06-30T17:03:19.013Z,41.60
2018-06-30T17:05:46.172Z,40.50
2018-06-30T17:08:13.372Z,40.00
2018-06-30T17:10:40.536Z,40.10
2018-06-30T17:13:07.733Z,40.40
2018-06-30T17:15:34.916Z,40.70
2018-06-30T17:18:02.088Z,40.40
2018-06-30T17:20:29.236Z,41.00
2018-06-30T17:22:56.416Z,39.70
2018-06-30T17:25:23.593Z,40.00
2018-06-30T17:27:50.773Z,41.60
2018-06-30T17:30:17.958Z,41.60
2018-06-30T17:32:45.148Z,40.70
2018-06-30T17:35:12.336Z,40.50
2018-06-30T17:37:39.757Z,40.50
2018-06-30T17:40:06.936Z,41.30
2018-06-30T17:42:34.126Z,41.00
2018-06-30T17:45:01.296Z,42.00
2018-06-30T17:47:28.461Z,41.40
2018-06-30T17:49:55.667Z,40.40
2018-06-30T17:52:22.839Z,41.00
2018-06-30T17:54:50.103Z,41.60
2018-06-30T17:57:17.284Z,40.60
2018-06-30T17:59:44.501Z,40.10
2018-06-30T18:02:11.787Z,39.80
2018-06-30T18:04:39.079Z,39.90
2018-06-30T18:07:06.329Z,39.30
2018-06-30T18:09:33.525Z,38.90
2018-06-30T18:12:00.725Z,38.70
2018-06-30T18:14:27.949Z,38.30
2018-06-30T18:16:55.276Z,39.90
2018-06-30T18:19:22.644Z,39.50
2018-06-30T18:21:49.836Z,37.40
2018-06-30T18:24:17.213Z,38.50
2018-06-30T18:26:44.406Z,37.80
2018-06-30T18:29:11.687Z,37.50
2018-06-30T18:31:38.877Z,38.10
2018-06-30T18:34:06.199Z,37.60
2018-06-30T18:36:33.426Z,36.90
2018-06-30T18:39:00.781Z,37.20
2018-06-30T18:41:28.006Z,36.10
2018-06-30T18:43:55.204Z,36.80
2018-06-30T18:46:22.393Z,36.60
2018-06-30T18:48:49.576Z,36.90
2018-06-30T18:51:16.797Z,36.60
2018-06-30T18:53:43.993Z,36.50
2018-06-30T18:56:11.246Z,35.70
2018-06-30T18:58:38.425Z,37.00
2018-06-30T19:01:05.630Z,36.90
2018-06-30T19:06:06.845Z,36.20
2018-06-30T19:08:34.016Z,35.70
2018-06-30T19:11:01.202Z,36.40
2018-06-30T19:13:28.394Z,36.70
2018-06-30T19:15:55.615Z,36.90
2018-06-30T19:18:22.783Z,38.00
2018-06-30T19:20:49.990Z,36.90
2018-06-30T19:23:17.158Z,37.40
2018-06-30T19:25:44.365Z,38.20
2018-06-30T19:28:11.548Z,37.90
2018-06-30T19:30:38.742Z,37.60
2018-06-30T19:33:05.906Z,37.30
2018-06-30T19:35:33.110Z,36.80
2018-06-30T19:38:00.287Z,37.80
2018-06-30T19:40:27.489Z,36.50
2018-06-30T19:42:54.692Z,37.00
2018-06-30T19:45:21.879Z,35.30
2018-06-30T19:47:50.118Z,35.10
2018-06-30T19:50:17.290Z,32.80
2018-06-30T19:52:44.453Z,33.80
2018-06-30T19:55:11.877Z,30.90
2018-06-30T19:57:39.076Z,31.20
2018-06-30T20:00:06.525Z,31.20
2018-06-30T20:02:33.720Z,31.60
2018-06-30T20:05:00.916Z,32.00
2018-06-30T20:07:31.221Z,31.70
2018-06-30T20:09:58.449Z,32.50
2018-06-30T20:12:25.642Z,32.70
2018-06-30T20:14:52.804Z,30.70
2018-06-30T20:19:47.181Z,32.40
2018-06-30T20:22:14.345Z,32.50
2018-06-30T20:24:41.530Z,32.90
2018-06-30T20:27:08.759Z,32.60
2018-06-30T20:29:36.220Z,32.90
2018-06-30T20:32:03.468Z,32.70
2018-06-30T20:34:30.722Z,32.80
2018-06-30T20:36:57.975Z,33.90
2018-06-30T20:39:25.357Z,32.20
2018-06-30T20:41:52.712Z,32.80
2018-06-30T20:46:47.137Z,32.30
2018-06-30T20:49:14.320Z,32.00
2018-06-30T20:51:41.710Z,31.60
2018-06-30T20:54:08.951Z,31.80
2018-06-30T20:56:36.121Z,32.00
2018-06-30T20:59:03.352Z,31.80
2018-06-30T21:01:30.524Z,31.00
2018-06-30T21:06:25.015Z,32.60
2018-06-30T21:08:52.236Z,32.80
2018-06-30T21:11:19.445Z,32.80
2018-06-30T21:13:46.649Z,32.20
2018-06-30T21:16:13.865Z,32.70
2018-06-30T21:18:41.048Z,33.20
2018-06-30T21:23:35.449Z,33.60
2018-06-30T21:26:02.639Z,34.00
2018-06-30T21:28:29.827Z,34.50
2018-06-30T21:30:57.044Z,35.00
2018-06-30T21:33:24.241Z,34.90
2018-06-30T21:35:51.412Z,35.40
2018-06-30T21:38:18.622Z,35.20
2018-06-30T21:40:45.853Z,34.70
2018-06-30T21:43:13.141Z,34.80
2018-06-30T21:45:40.329Z,34.60
2018-06-30T21:48:07.669Z,35.00
2018-06-30T21:50:35.040Z,35.00
2018-06-30T21:53:02.213Z,35.30
2018-06-30T21:55:29.400Z,35.30
2018-06-30T21:57:56.599Z,35.40
2018-06-30T22:00:35.495Z,35.10
2018-06-30T22:03:02.721Z,34.90
2018-06-30T22:05:29.924Z,34.70
2018-06-30T22:07:57.121Z,35.30
2018-06-30T22:10:24.333Z,35.70
2018-06-30T22:12:51.524Z,35.20
2018-06-30T22:15:18.706Z,36.00
2018-06-30T22:17:45.917Z,36.60
2018-06-30T22:20:13.101Z,36.60
2018-06-30T22:22:40.304Z,36.80
2018-06-30T22:25:08.009Z,36.00
2018-06-30T22:27:35.184Z,36.20
2018-06-30T22:30:02.405Z,37.50
2018-06-30T22:32:29.612Z,37.50
2018-06-30T22:34:56.788Z,37.30
2018-06-30T22:37:23.989Z,38.00
2018-06-30T22:40:02.629Z,38.30
2018-06-30T22:42:30.044Z,38.40
2018-06-30T22:44:57.495Z,37.90
2018-06-30T22:47:24.721Z,39.60
2018-06-30T22:49:51.912Z,38.60
2018-06-30T22:52:19.136Z,39.20
2018-06-30T22:54:46.338Z,39.70
2018-06-30T22:57:13.556Z,39.20
2018-06-30T22:59:40.750Z,38.70
2018-06-30T23:02:07.946Z,38.40
2018-06-30T23:04:35.120Z,38.10
2018-06-30T23:07:02.304Z,38.60
2018-06-30T23:09:29.489Z,39.00
2018-06-30T23:11:56.693Z,39.30
2018-06-30T23:14:23.865Z,39.50
2018-06-30T23:16:51.036Z,40.00
2018-06-30T23:19:18.196Z,40.20
2018-06-30T23:21:45.408Z,39.90
2018-06-30T23:24:12.569Z,39.80
2018-06-30T23:26:39.764Z,39.20
2018-06-30T23:29:06.957Z,39.60
2018-06-30T23:31:34.168Z,39.80
2018-06-30T23:34:01.361Z,39.50
2018-06-30T23:36:28.532Z,39.20
2018-06-30T23:38:55.705Z,39.90
2018-06-30T23:41:22.896Z,38.60
2018-06-30T23:43:50.113Z,38.90
2018-06-30T23:48:45.000Z,38.90
2018-06-30T23:51:12.194Z,38.70
2018-06-30T23:53:39.381Z,38.30
2018-06-30T23:56:06.601Z,38.70
2018-06-30T23:58:33.815Z,38.40
